Time;durP1;ratioP1;P1;durP2;ratioP2;P2;SDS_P1;SDS_P2;PMS_P1;PMS_P2;Temp;Humidity;BMP_temperature;BMP_pressure;BME280_temperature;BME280_humidity;BME280_pressure;Samples;Min_cycle;Max_cycle;Signal;HPM_P1;HPM_P2
2023/02/05 00:00:50;;;;;;;15.23;6.70;;;;;;;15.63;50.17;103489.00;5034603;28;20559;-71
2023/02/05 00:03:16;;;;;;;16.13;7.03;;;;;;;15.62;50.81;103493.53;5035722;28;20067;-70
2023/02/05 00:05:41;;;;;;;17.92;7.45;;;;;;;15.62;50.45;103488.13;5035043;28;20033;-70
2023/02/05 00:08:06;;;;;;;16.33;7.57;;;;;;;15.62;50.67;103479.16;5035684;28;20398;-69
2023/02/05 00:10:32;;;;;;;15.35;6.90;;;;;;;15.61;51.35;103475.56;5034454;28;20493;-70
2023/02/05 00:12:57;;;;;;;19.23;7.28;;;;;;;15.61;51.43;103467.47;5034267;28;20052;-70
2023/02/05 00:15:23;;;;;;;21.40;7.47;;;;;;;15.59;51.42;103458.59;5035575;28;20025;-71
2023/02/05 00:17:48;;;;;;;18.00;7.93;;;;;;;15.57;51.45;103459.66;5017811;28;20405;-71
2023/02/05 00:20:13;;;;;;;17.25;8.35;;;;;;;15.56;49.88;103461.50;5035416;28;20103;-70
2023/02/05 00:22:39;;;;;;;15.32;7.32;;;;;;;15.55;51.40;103459.75;5035410;28;20041;-71
2023/02/05 00:25:04;;;;;;;15.20;6.90;;;;;;;15.55;50.97;103459.75;5033975;28;20045;-71
2023/02/05 00:27:31;;;;;;;13.75;6.53;;;;;;;15.55;51.44;103459.75;5035549;28;20552;-70
2023/02/05 00:29:57;;;;;;;16.75;6.32;;;;;;;15.56;51.04;103466.03;5035262;28;20025;-70
2023/02/05 00:32:22;;;;;;;15.95;6.75;;;;;;;15.56;51.66;103466.91;5034684;28;20063;-70
2023/02/05 00:34:47;;;;;;;14.52;6.75;;;;;;;15.57;50.10;103459.66;5034973;28;20052;-70
2023/02/05 00:37:13;;;;;;;16.27;7.07;;;;;;;15.58;50.27;103459.56;5033982;28;20065;-70
2023/02/05 00:39:38;;;;;;;16.10;6.88;;;;;;;15.59;50.58;103446.91;5033728;28;20124;-70
2023/02/05 00:42:04;;;;;;;17.02;7.28;;;;;;;15.60;49.94;103454.06;5035219;28;20036;-69
2023/02/05 00:44:29;;;;;;;13.75;6.60;;;;;;;15.59;51.45;103442.38;5035717;28;20552;-69
2023/02/05 00:46:54;;;;;;;16.88;7.80;;;;;;;15.60;50.52;103444.13;5034891;28;20042;-70
2023/02/05 00:49:20;;;;;;;18.75;7.35;;;;;;;15.60;50.82;103430.63;5034954;28;20029;-70
2023/02/05 00:51:45;;;;;;;17.38;7.55;;;;;;;15.58;50.17;103427.13;5034870;28;20037;-69
2023/02/05 00:54:10;;;;;;;16.52;7.40;;;;;;;15.58;51.63;103421.72;5035121;28;20029;-70
2023/02/05 00:56:36;;;;;;;21.77;8.45;;;;;;;15.57;51.34;103419.13;5035144;28;20022;-70
2023/02/05 00:59:01;;;;;;;16.65;6.97;;;;;;;15.56;50.96;103412.84;5034702;28;20085;-69
2023/02/05 01:01:27;;;;;;;19.42;7.68;;;;;;;15.57;50.26;103409.19;5034381;28;20129;-70
2023/02/05 01:03:52;;;;;;;16.70;7.63;;;;;;;15.56;51.12;103402.06;5034634;28;20061;-70
2023/02/05 01:06:17;;;;;;;22.35;8.93;;;;;;;15.56;51.16;103402.06;5016739;28;20029;-69
2023/02/05 01:08:43;;;;;;;27.05;10.30;;;;;;;15.57;51.59;103392.13;5035138;28;20152;-72
2023/02/05 01:11:10;;;;;;;23.45;8.63;;;;;;;15.57;50.43;103387.59;5034447;28;20394;-70
2023/02/05 01:13:36;;;;;;;20.58;8.93;;;;;;;15.57;50.47;103382.19;5034594;28;20107;-70
2023/02/05 01:16:02;;;;;;;25.40;10.20;;;;;;;15.56;50.94;103399.34;5034557;28;20026;-70
2023/02/05 01:18:28;;;;;;;22.73;9.80;;;;;;;15.56;51.66;103406.59;5032968;28;20038;-71
2023/02/05 01:20:53;;;;;;;18.35;9.02;;;;;;;15.55;50.87;103421.91;5034341;28;20060;-70
2023/02/05 01:23:18;;;;;;;28.88;10.38;;;;;;;15.55;51.15;103404.88;5034867;28;20033;-70
2023/02/05 01:25:44;;;;;;;23.55;9.77;;;;;;;15.56;51.06;103393.94;5033971;28;20493;-70
2023/02/05 01:28:10;;;;;;;28.98;11.05;;;;;;;15.57;50.43;103392.13;5034439;28;20057;-70
2023/02/05 01:30:35;;;;;;;25.85;9.20;;;;;;;15.55;50.72;103389.50;5034140;28;20037;-70
2023/02/05 01:33:01;;;;;;;24.75;10.57;;;;;;;15.57;51.56;103392.13;5034327;28;20029;-69
2023/02/05 01:35:27;;;;;;;23.88;10.13;;;;;;;15.58;50.38;103388.44;5034638;28;20104;-71
2023/02/05 01:37:52;;;;;;;26.25;9.77;;;;;;;15.55;50.41;103378.69;5034089;28;20553;-70
2023/02/05 01:40:18;;;;;;;22.98;9.70;;;;;;;15.58;51.35;103383.03;5032726;28;20033;-70
2023/02/05 01:42:43;;;;;;;25.88;10.40;;;;;;;15.56;50.59;103391.25;5034022;28;20616;-70
2023/02/05 01:45:21;;;;;;;25.33;10.45;;;;;;;15.56;51.18;103380.44;5033993;28;20036;-71
2023/02/05 01:47:52;;;;;;;21.83;9.48;;;;;;;15.57;50.49;103386.72;5045293;28;20020;-70
2023/02/05 01:50:39;;;;;;;31.38;11.98;;;;;;;15.55;50.67;103389.50;5053802;28;20036;-71
2023/02/05 01:53:08;;;;;;;23.90;11.23;;;;;;;15.57;51.91;103387.59;5052768;28;20036;-70
2023/02/05 01:55:35;;;;;;;31.80;11.70;;;;;;;15.58;51.39;103381.19;5053819;28;20180;-71
2023/02/05 01:58:01;;;;;;;24.40;11.23;;;;;;;15.58;50.63;103377.63;5053536;28;20033;-71
2023/02/05 02:00:26;;;;;;;25.38;11.45;;;;;;;15.60;50.54;103383.81;5053474;28;20025;-69
2023/02/05 02:02:52;;;;;;;29.15;12.15;;;;;;;15.61;51.70;103381.00;5052566;28;20025;-69
2023/02/05 02:05:17;;;;;;;26.95;11.27;;;;;;;15.62;51.27;103400.78;5035611;28;20484;-70
2023/02/05 02:07:43;;;;;;;27.85;10.85;;;;;;;15.63;51.46;103408.78;5052207;28;20060;-69
2023/02/05 02:10:10;;;;;;;24.70;11.32;;;;;;;15.63;50.89;103403.38;5052035;28;20041;-70
2023/02/05 02:12:37;;;;;;;31.45;11.25;;;;;;;15.64;51.34;103405.13;5034967;28;20037;-71
2023/02/05 02:15:07;;;;;;;27.33;11.07;;;;;;;15.63;50.50;103400.69;5051954;28;20032;-70
2023/02/05 02:17:38;;;;;;;30.13;12.85;;;;;;;15.64;51.57;103415.94;5035666;28;20389;-69
2023/02/05 02:20:09;;;;;;;32.22;13.52;;;;;;;15.63;51.19;103408.78;5053127;28;20036;-69
2023/02/05 02:22:53;;;;;;;31.73;12.70;;;;;;;15.64;51.61;103404.25;5051795;28;20033;-69
2023/02/05 02:25:27;;;;;;;31.00;12.88;;;;;;;15.63;51.72;103408.78;5053077;28;20048;-70
2023/02/05 02:27:56;;;;;;;32.95;12.77;;;;;;;15.63;51.63;103411.47;5053007;28;20044;-71
2023/02/05 02:30:25;;;;;;;31.52;13.80;;;;;;;15.64;51.88;103415.94;5051956;28;20094;-69
2023/02/05 02:32:57;;;;;;;35.25;13.85;;;;;;;15.66;50.43;103410.44;5052406;28;20102;-69
2023/02/05 02:35:55;;;;;;;31.57;12.60;;;;;;;15.67;51.66;103410.34;5052211;28;20051;-71
2023/02/05 02:38:37;;;;;;;31.50;13.02;;;;;;;15.69;51.74;103408.41;5044560;28;20266;-70
2023/02/05 02:41:07;;;;;;;40.42;13.57;;;;;;;15.69;51.33;103411.09;5051443;28;20037;-69
2023/02/05 02:43:42;;;;;;;35.10;13.57;;;;;;;15.69;51.91;103403.00;5051586;28;20581;-71
2023/02/05 02:46:15;;;;;;;34.78;14.95;;;;;;;15.69;52.06;103397.59;5051504;28;20037;-70
2023/02/05 02:48:41;;;;;;;36.40;13.40;;;;;;;15.67;51.70;103399.53;5052849;28;20048;-69
2023/02/05 02:51:08;;;;;;;34.08;14.35;;;;;;;15.67;51.87;103388.72;5051525;28;20583;-71
2023/02/05 02:53:37;;;;;;;36.42;14.23;;;;;;;15.68;50.61;103390.47;5052048;28;20021;-69
2023/02/05 02:56:03;;;;;;;44.22;14.63;;;;;;;15.70;51.87;103387.66;5051379;28;20036;-70
2023/02/05 02:58:34;;;;;;;34.13;14.07;;;;;;;15.68;50.93;103393.16;5051288;28;20033;-70
2023/02/05 03:01:00;;;;;;;37.33;14.07;;;;;;;15.66;51.75;103386.97;5051558;28;20496;-70
2023/02/05 03:03:27;;;;;;;32.95;13.00;;;;;;;15.67;51.85;103383.31;5051373;28;20052;-69
2023/02/05 03:05:54;;;;;;;39.47;14.73;;;;;;;15.67;51.04;103377.03;5051265;28;20112;-71
2023/02/05 03:08:41;;;;;;;30.90;13.07;;;;;;;15.67;50.58;103372.50;5051667;28;20025;-72
2023/02/05 03:11:11;;;;;;;35.13;13.35;;;;;;;15.66;50.98;103368.06;5032477;28;20045;-69
2023/02/05 03:13:37;;;;;;;32.85;13.77;;;;;;;15.65;50.67;103346.56;5037881;28;20033;-71
2023/02/05 03:16:02;;;;;;;31.20;14.00;;;;;;;15.64;52.19;103348.38;5067862;28;20039;-70
2023/02/05 03:18:28;;;;;;;28.90;13.15;;;;;;;15.64;51.10;103345.69;5051186;28;20039;-71
2023/02/05 03:20:57;;;;;;;31.85;14.57;;;;;;;15.66;51.23;103351.00;5050017;28;20500;-70
2023/02/05 03:23:22;;;;;;;33.35;14.02;;;;;;;15.66;51.79;103359.94;5052971;28;20052;-70
2023/02/05 03:25:48;;;;;;;33.08;13.57;;;;;;;15.67;51.11;103353.59;5056313;28;20068;-70
2023/02/05 03:28:14;;;;;;;30.92;13.52;;;;;;;15.68;51.21;103341.81;5056319;28;20056;-71
2023/02/05 03:30:51;;;;;;;32.30;12.90;;;;;;;15.69;50.70;103343.53;5071781;28;20041;-70
2023/02/05 03:33:34;;;;;;;32.22;14.27;;;;;;;15.69;52.06;103338.13;5071709;28;20037;-71
2023/02/05 03:36:07;;;;;;;35.45;14.75;;;;;;;15.69;50.81;103346.25;5056007;28;20481;-69
2023/02/05 03:38:41;;;;;;;30.10;12.45;;;;;;;15.68;50.87;103336.41;5056521;28;20393;-70
2023/02/05 03:41:15;;;;;;;36.25;14.07;;;;;;;15.67;50.75;103340.06;5054788;28;20040;-69
2023/02/05 03:43:46;;;;;;;32.28;14.90;;;;;;;15.68;52.16;103347.22;5056071;28;20041;-70
2023/02/05 03:46:51;;;;;;;28.13;13.60;;;;;;;15.67;51.56;103344.59;5055919;28;20447;-70
2023/02/05 03:49:36;;;;;;;33.92;12.88;;;;;;;15.66;50.83;103349.13;5051074;28;20029;-70
2023/02/05 03:52:06;;;;;;;30.50;13.25;;;;;;;15.63;50.90;103354.75;5055449;28;20412;-69
2023/02/05 03:54:48;;;;;;;38.25;13.82;;;;;;;15.63;52.08;103360.16;5071218;28;20033;-71
2023/02/05 03:57:26;;;;;;;27.43;12.43;;;;;;;15.62;51.07;103362.97;5054739;28;20048;-71
2023/02/05 03:59:52;;;;;;;29.20;12.30;;;;;;;15.59;52.06;103374.84;5056420;28;20056;-69
2023/02/05 04:02:18;;;;;;;26.92;11.35;;;;;;;15.54;51.29;103374.28;5054547;28;20068;-70
2023/02/05 04:04:43;;;;;;;27.83;11.18;;;;;;;15.49;52.29;103379.13;5054674;28;20041;-70
2023/02/05 04:07:09;;;;;;;28.88;11.15;;;;;;;15.46;51.30;103376.59;5054450;28;20394;-69
2023/02/05 04:09:35;;;;;;;20.83;9.93;;;;;;;15.44;51.43;103381.19;5055825;28;20044;-69
2023/02/05 04:12:00;;;;;;;26.80;10.43;;;;;;;15.44;51.09;103396.50;5055574;28;20020;-70
2023/02/05 04:14:25;;;;;;;22.95;9.70;;;;;;;15.45;50.59;103396.44;5056212;28;20039;-70
2023/02/05 04:16:51;;;;;;;23.08;9.57;;;;;;;15.44;51.82;103400.09;5055720;28;20115;-70
2023/02/05 04:19:16;;;;;;;20.00;9.48;;;;;;;15.43;51.52;103409.19;5071582;28;20385;-70
2023/02/05 04:21:41;;;;;;;21.15;9.25;;;;;;;15.42;52.16;103407.44;5075357;28;20036;-70
2023/02/05 04:24:07;;;;;;;22.00;8.85;;;;;;;15.42;51.00;103404.72;5075411;28;20456;-70
2023/02/05 04:26:32;;;;;;;18.48;10.00;;;;;;;15.41;51.73;103404.84;5074454;28;20075;-71
2023/02/05 04:28:58;;;;;;;15.63;7.95;;;;;;;15.38;50.58;103392.38;5057294;28;20054;-69
2023/02/05 04:31:23;;;;;;;19.83;9.68;;;;;;;15.38;52.02;103381.56;5067205;28;20086;-71
2023/02/05 04:33:48;;;;;;;22.55;9.98;;;;;;;15.38;51.76;103376.16;5055152;28;20055;-70
2023/02/05 04:36:14;;;;;;;17.65;8.30;;;;;;;15.39;51.89;103377.91;5054681;28;20493;-70
2023/02/05 04:38:39;;;;;;;18.65;8.07;;;;;;;15.37;50.97;103369.06;5055281;28;20044;-70
2023/02/05 04:41:05;;;;;;;20.27;9.90;;;;;;;15.36;50.92;103361.91;5054824;28;20033;-70
2023/02/05 04:43:30;;;;;;;19.02;7.95;;;;;;;15.36;50.49;103361.03;5054739;28;20428;-69
2023/02/05 04:45:55;;;;;;;17.45;8.30;;;;;;;15.35;50.34;103365.59;5054640;28;20512;-72
2023/02/05 04:48:21;;;;;;;20.63;8.95;;;;;;;15.36;50.29;103371.84;5054922;28;20025;-70
2023/02/05 04:50:46;;;;;;;25.33;10.15;;;;;;;15.36;51.30;103378.09;5021113;28;20029;-71
2023/02/05 04:53:12;;;;;;;17.55;9.07;;;;;;;15.35;50.52;103372.81;5054614;28;20111;-69
2023/02/05 04:55:37;;;;;;;19.30;8.70;;;;;;;15.30;50.88;103378.50;5054702;28;20029;-71
2023/02/05 04:58:03;;;;;;;25.80;10.32;;;;;;;15.28;51.44;103375.03;5054699;28;20505;-69
2023/02/05 05:00:28;;;;;;;20.13;9.68;;;;;;;15.29;51.25;103384.88;5054709;28;20576;-70
2023/02/05 05:02:54;;;;;;;16.98;7.78;;;;;;;15.30;50.68;103393.84;5054569;28;20029;-70
2023/02/05 05:05:19;;;;;;;16.85;9.00;;;;;;;15.30;50.40;103400.09;5055200;28;20052;-69
2023/02/05 05:07:44;;;;;;;18.50;9.60;;;;;;;15.29;51.98;103398.38;5054408;28;20064;-71
2023/02/05 05:10:10;;;;;;;24.08;10.85;;;;;;;15.27;51.02;103394.88;5054284;28;20061;-69
2023/02/05 05:12:36;;;;;;;21.23;9.90;;;;;;;15.27;52.05;103394.88;5054406;28;20060;-71
2023/02/05 05:15:03;;;;;;;22.98;10.27;;;;;;;15.26;51.84;103387.78;5054325;28;20108;-70
2023/02/05 05:17:28;;;;;;;21.27;9.80;;;;;;;15.26;50.90;103392.28;5055176;28;20021;-70
2023/02/05 05:19:54;;;;;;;18.02;9.30;;;;;;;15.24;50.65;103384.31;5054225;28;20114;-71
2023/02/05 05:22:19;;;;;;;19.42;10.00;;;;;;;15.24;51.49;103389.72;5054167;28;20044;-70
2023/02/05 05:24:44;;;;;;;19.10;9.73;;;;;;;15.24;50.43;103386.13;5054525;28;20033;-71
2023/02/05 05:27:10;;;;;;;20.17;10.30;;;;;;;15.23;50.70;103385.25;5054198;28;20061;-69
2023/02/05 05:29:36;;;;;;;20.60;9.13;;;;;;;15.21;50.63;103384.50;5054401;28;20037;-71
2023/02/05 05:32:01;;;;;;;20.48;9.80;;;;;;;15.18;51.56;103384.69;5054085;28;20037;-70
2023/02/05 05:34:26;;;;;;;21.88;9.60;;;;;;;15.16;51.65;103386.59;5054121;28;20033;-70
2023/02/05 05:36:52;;;;;;;22.83;9.98;;;;;;;15.16;51.75;103386.59;5052730;28;20039;-69
2023/02/05 05:44:50;;;;;;;19.55;9.85;;;;;;;15.16;50.44;103370.41;5054447;28;20036;-70
2023/02/05 05:47:18;;;;;;;21.60;9.77;;;;;;;15.17;50.81;103372.13;5052203;28;20041;-69
2023/02/05 05:49:44;;;;;;;20.08;9.73;;;;;;;15.18;50.87;103368.50;5053355;28;20409;-70
2023/02/05 05:52:09;;;;;;;19.80;9.98;;;;;;;15.19;50.75;103372.91;5053660;28;20041;-70
2023/02/05 05:54:35;;;;;;;17.10;9.13;;;;;;;15.19;51.03;103367.50;5053526;28;20118;-71
2023/02/05 05:57:00;;;;;;;18.80;10.02;;;;;;;15.20;50.58;103373.78;5053551;28;20025;-70
2023/02/05 05:59:26;;;;;;;19.90;9.00;;;;;;;15.19;50.48;103374.75;5053783;28;20032;-70
2023/02/05 06:01:51;;;;;;;20.55;9.88;;;;;;;15.16;50.55;103371.25;5053593;28;20032;-70
2023/02/05 06:04:17;;;;;;;18.70;8.90;;;;;;;15.18;51.63;103373.88;5053589;28;20040;-69
2023/02/05 06:06:42;;;;;;;16.77;8.88;;;;;;;15.17;51.18;103372.13;5053508;28;20044;-70
2023/02/05 06:09:07;;;;;;;16.23;8.45;;;;;;;15.16;51.55;103362.28;5053281;28;20028;-69
2023/02/05 06:11:33;;;;;;;15.15;7.95;;;;;;;15.15;50.95;103372.25;5053700;28;20052;-69
2023/02/05 06:13:58;;;;;;;17.60;9.30;;;;;;;15.15;50.44;103368.69;5053192;28;20029;-70
2023/02/05 06:16:23;;;;;;;25.17;8.93;;;;;;;15.16;51.48;103370.41;5053169;28;20063;-70
2023/02/05 06:18:49;;;;;;;23.52;9.32;;;;;;;15.17;51.53;103366.75;5053107;28;20032;-70
2023/02/05 06:21:14;;;;;;;18.92;9.00;;;;;;;15.15;51.22;103361.44;5053126;28;20037;-70
2023/02/05 06:23:39;;;;;;;15.07;7.68;;;;;;;15.14;51.64;103356.13;5053745;28;20035;-71
2023/02/05 06:26:05;;;;;;;17.33;8.27;;;;;;;15.13;51.30;103362.50;5053059;28;20048;-70
2023/02/05 06:28:30;;;;;;;17.25;9.32;;;;;;;15.13;50.58;103359.81;5053097;28;20049;-70
2023/02/05 06:30:56;;;;;;;17.02;8.45;;;;;;;15.13;50.02;103359.81;5053055;28;20030;-70
2023/02/05 06:33:21;;;;;;;20.35;9.00;;;;;;;15.14;51.39;103345.31;5053269;28;20069;-69
2023/02/05 06:35:46;;;;;;;16.73;8.27;;;;;;;15.14;50.24;103345.31;5052313;28;20070;-70
2023/02/05 06:38:12;;;;;;;15.98;8.52;;;;;;;15.15;50.26;103352.47;5052944;28;20059;-70
2023/02/05 06:40:37;;;;;;;21.40;8.13;;;;;;;15.14;50.24;103351.59;5052848;28;20163;-69
2023/02/05 06:43:03;;;;;;;22.80;8.27;;;;;;;15.15;50.03;103350.66;5052968;28;20029;-69
2023/02/05 06:45:28;;;;;;;18.73;8.82;;;;;;;15.15;50.57;103347.06;5052924;28;20057;-70
2023/02/05 06:47:54;;;;;;;19.60;8.65;;;;;;;15.12;51.48;103348.16;5052799;28;20033;-69
2023/02/05 06:50:21;;;;;;;17.80;8.57;;;;;;;15.09;50.20;103347.47;5051958;28;20116;-70
2023/02/05 06:52:46;;;;;;;17.17;7.43;;;;;;;15.08;51.68;103343.88;5051404;28;20512;-71
2023/02/05 06:55:12;;;;;;;17.58;8.38;;;;;;;15.03;50.19;103347.84;5052595;28;20033;-69
2023/02/05 06:57:37;;;;;;;21.58;9.63;;;;;;;15.01;51.47;103350.66;5052500;28;20407;-69
2023/02/05 07:00:04;;;;;;;13.00;8.25;;;;;;;15.02;51.67;103354.19;5052565;28;20029;-70
2023/02/05 07:02:30;;;;;;;16.27;7.82;;;;;;;15.00;50.15;103345.31;5053333;28;20021;-71
2023/02/05 07:04:55;;;;;;;19.63;8.02;;;;;;;14.93;51.58;103346.69;5052650;28;20047;-71
2023/02/05 07:07:20;;;;;;;18.85;8.07;;;;;;;14.90;51.84;103357.69;5051205;28;20037;-70
2023/02/05 07:09:46;;;;;;;24.40;8.95;;;;;;;14.84;51.91;103358.06;5052567;28;20049;-70
2023/02/05 07:12:11;;;;;;;17.80;7.82;;;;;;;14.78;51.91;103358.41;5051306;28;20106;-70
2023/02/05 07:14:40;;;;;;;17.42;8.00;;;;;;;14.72;50.38;103356.97;5052829;28;20021;-70
2023/02/05 07:17:06;;;;;;;19.95;7.90;;;;;;;14.69;51.20;103358.97;5052667;28;20067;-70
2023/02/05 07:19:32;;;;;;;13.77;8.00;;;;;;;14.65;50.42;103368.25;5067589;28;20060;-71
2023/02/05 07:21:57;;;;;;;15.43;7.57;;;;;;;14.60;52.10;103370.34;5051074;28;20425;-71
2023/02/05 07:24:23;;;;;;;13.52;7.28;;;;;;;14.56;51.13;103375.94;5052351;28;20033;-70
2023/02/05 07:26:48;;;;;;;15.13;7.07;;;;;;;14.54;52.21;103380.53;5052788;28;20029;-70
2023/02/05 07:29:14;;;;;;;18.02;6.80;;;;;;;14.51;50.88;103386.13;5052211;28;20061;-71
2023/02/05 07:31:39;;;;;;;20.20;6.70;;;;;;;14.47;52.29;103384.56;5045182;28;20520;-70
2023/02/05 07:34:04;;;;;;;10.43;6.38;;;;;;;14.42;50.78;103386.69;5039424;28;20029;-71
2023/02/05 07:36:30;;;;;;;11.18;5.82;;;;;;;14.42;50.98;103388.50;5035155;28;20022;-70
2023/02/05 07:38:55;;;;;;;10.88;5.97;;;;;;;14.42;52.20;103410.06;5032160;28;20029;-70
2023/02/05 07:41:21;;;;;;;10.15;6.05;;;;;;;14.42;51.02;103408.25;5032806;28;20075;-70
2023/02/05 07:43:50;;;;;;;8.43;5.22;;;;;;;14.44;52.50;103414.41;5032528;28;20030;-70
2023/02/05 07:46:16;;;;;;;9.98;4.28;;;;;;;14.42;52.47;103410.94;5032423;28;20046;-69
2023/02/05 07:48:41;;;;;;;6.15;3.60;;;;;;;14.40;51.09;103418.25;5032688;28;20057;-69
2023/02/05 07:51:06;;;;;;;8.35;3.85;;;;;;;14.37;51.09;103428.34;5031101;28;20030;-70
2023/02/05 07:53:32;;;;;;;6.10;2.92;;;;;;;14.34;52.55;103424.00;5048767;28;20082;-70
2023/02/05 07:56:04;;;;;;;8.02;2.47;;;;;;;14.33;51.82;103437.56;5052574;28;20033;-69
2023/02/05 07:58:29;;;;;;;3.63;1.55;;;;;;;14.28;52.54;103440.50;5052311;28;20041;-69
2023/02/05 08:00:59;;;;;;;7.57;1.20;;;;;;;14.25;51.72;103446.06;5052341;28;20060;-70
2023/02/05 08:03:24;;;;;;;6.07;1.05;;;;;;;14.24;50.99;103465.91;5052125;28;20432;-69
2023/02/05 08:05:50;;;;;;;4.10;1.25;;;;;;;14.22;52.19;103459.72;5052138;28;20025;-68
2023/02/05 08:08:15;;;;;;;2.03;0.85;;;;;;;14.20;50.98;103469.75;5052528;28;20116;-68
2023/02/05 08:10:40;;;;;;;6.18;0.75;;;;;;;14.20;50.68;103475.13;5053930;28;20072;-69
2023/02/05 08:13:06;;;;;;;5.53;0.57;;;;;;;14.15;52.10;103490.72;5055664;28;20033;-69
2023/02/05 08:15:31;;;;;;;3.70;0.70;;;;;;;14.09;52.08;103496.44;5055669;28;20063;-69
2023/02/05 08:17:56;;;;;;;0.32;0.20;;;;;;;14.06;51.32;103493.91;5054498;28;20033;-69
2023/02/05 08:20:22;;;;;;;0.73;0.30;;;;;;;14.03;51.51;103494.09;5054511;28;20145;-69
2023/02/05 08:22:47;;;;;;;5.68;0.45;;;;;;;14.07;51.46;103511.81;5054117;28;20064;-68
2023/02/05 08:25:13;;;;;;;0.47;0.28;;;;;;;14.13;51.12;103514.16;5054349;28;20069;-69
2023/02/05 08:27:40;;;;;;;0.80;0.20;;;;;;;14.17;51.53;103515.75;5055307;28;20488;-69
2023/02/05 08:30:09;;;;;;;1.25;0.40;;;;;;;14.27;50.27;103519.66;5054219;28;20059;-67
2023/02/05 08:32:34;;;;;;;2.00;0.20;;;;;;;14.25;50.87;103518.88;5055784;28;20036;-68
2023/02/05 08:35:00;;;;;;;2.67;0.22;;;;;;;14.28;50.64;103524.09;5055190;28;20377;-67
2023/02/05 08:37:26;;;;;;;0.57;0.40;;;;;;;14.32;50.38;103517.59;5053997;28;20047;-68
2023/02/05 08:39:51;;;;;;;2.72;0.30;;;;;;;14.37;51.19;103539.78;5055230;28;20033;-68
2023/02/05 08:42:17;;;;;;;1.05;0.10;;;;;;;14.41;50.97;103525.16;5055171;28;20520;-68
2023/02/05 08:44:43;;;;;;;0.38;0.32;;;;;;;14.44;49.95;103533.06;5055433;28;20040;-68
2023/02/05 08:47:08;;;;;;;2.63;0.47;;;;;;;14.50;50.34;103539.94;5051999;28;20025;-72
2023/02/05 08:49:33;;;;;;;2.13;0.30;;;;;;;14.55;50.94;103541.41;5052101;28;20071;-69
2023/02/05 08:51:59;;;;;;;1.58;0.13;;;;;;;14.61;49.48;103542.88;5055606;28;20408;-69
2023/02/05 08:54:24;;;;;;;3.28;0.95;;;;;;;14.64;49.88;103542.72;5055180;28;20108;-70
2023/02/05 08:56:50;;;;;;;3.47;0.52;;;;;;;14.90;49.77;103542.06;5053872;28;20093;-68
2023/02/05 08:59:16;;;;;;;2.22;0.70;;;;;;;15.02;48.88;103551.25;5055365;28;20025;-70
2023/02/05 09:01:42;;;;;;;2.15;0.22;;;;;;;15.21;49.12;103541.13;5054907;28;20511;-70
2023/02/05 09:04:15;;;;;;;0.28;0.28;;;;;;;15.35;48.43;103549.25;5055039;28;20036;-69
2023/02/05 09:06:42;;;;;;;5.18;0.88;;;;;;;15.71;49.76;103551.53;5053127;28;20045;-70
2023/02/05 09:09:07;;;;;;;2.88;0.52;;;;;;;15.87;48.33;103536.09;5036651;28;20033;-69
2023/02/05 09:11:33;;;;;;;4.97;0.50;;;;;;;15.90;49.42;103537.72;5053553;28;20025;-70
2023/02/05 09:13:58;;;;;;;5.40;0.32;;;;;;;15.99;49.31;103545.25;5053537;28;20415;-69
2023/02/05 09:16:24;;;;;;;6.50;0.57;;;;;;;16.03;49.68;103557.59;5055205;28;20491;-69
2023/02/05 09:18:52;;;;;;;1.67;0.57;;;;;;;16.03;49.68;103550.38;5054427;28;20080;-69
2023/02/05 09:21:17;;;;;;;7.68;0.60;;;;;;;16.01;49.49;103552.31;5052878;28;20052;-69
2023/02/05 09:23:42;;;;;;;0.95;0.30;;;;;;;16.01;48.94;103557.72;5054348;28;20021;-69
2023/02/05 09:26:08;;;;;;;3.97;0.60;;;;;;;16.08;49.12;103555.50;5053013;28;20052;-70
2023/02/05 09:28:34;;;;;;;4.63;0.47;;;;;;;16.09;49.27;103557.22;5054751;28;20025;-68
2023/02/05 09:31:12;;;;;;;6.53;0.80;;;;;;;16.09;48.81;103547.28;5054490;28;20025;-69
2023/02/05 09:33:38;;;;;;;2.40;1.40;;;;;;;16.10;48.10;103557.13;5054442;28;20445;-70
2023/02/05 09:36:15;;;;;;;7.63;0.63;;;;;;;16.13;47.91;103558.78;5054802;28;20120;-71
2023/02/05 09:38:41;;;;;;;5.05;0.75;;;;;;;16.09;47.86;103558.09;5054225;28;20028;-71
2023/02/05 09:41:37;;;;;;;3.10;0.70;;;;;;;16.08;47.95;103550.94;5036317;28;20433;-70
2023/02/05 09:44:50;;;;;;;2.35;0.70;;;;;;;16.00;48.05;103546.97;5063488;28;20053;-69
2023/02/05 09:47:23;;;;;;;8.25;0.85;;;;;;;15.83;48.70;103549.91;5020562;28;20118;-69
2023/02/05 09:49:58;;;;;;;2.55;0.60;;;;;;;15.76;48.89;103553.94;5053075;28;20029;-69
2023/02/05 09:52:27;;;;;;;3.33;0.80;;;;;;;15.64;47.60;103556.44;5052777;28;20096;-72
2023/02/05 09:54:56;;;;;;;4.38;0.55;;;;;;;15.57;47.98;103563.22;5054123;28;20043;-71
2023/02/05 09:57:31;;;;;;;6.03;0.60;;;;;;;15.50;48.01;103556.44;5036005;28;20037;-71
2023/02/05 09:59:57;;;;;;;7.53;0.95;;;;;;;15.44;48.64;103551.34;5054130;28;20040;-71
2023/02/05 10:02:36;;;;;;;6.20;1.13;;;;;;;15.42;47.39;103560.53;5052411;28;20044;-71
2023/02/05 10:05:11;;;;;;;4.28;0.73;;;;;;;15.41;48.77;103558.81;5053608;28;20016;-71
2023/02/05 10:07:43;;;;;;;10.43;1.20;;;;;;;15.38;48.16;103549.03;5052561;28;20527;-72
2023/02/05 10:10:27;;;;;;;7.28;0.95;;;;;;;15.37;48.81;103557.25;5040073;28;20508;-71
2023/02/05 10:12:52;;;;;;;7.22;0.90;;;;;;;15.34;47.54;103558.31;5032390;28;20048;-71
2023/02/05 10:15:42;;;;;;;5.90;1.10;;;;;;;15.34;49.09;103552.91;5033709;28;20034;-71
2023/02/05 10:18:16;;;;;;;4.13;1.23;;;;;;;15.28;48.92;103564.06;5033760;28;20120;-72
2023/02/05 10:21:05;;;;;;;6.68;1.60;;;;;;;15.26;48.63;103571.41;5033689;28;20032;-71
2023/02/05 10:23:55;;;;;;;6.75;1.20;;;;;;;15.24;47.70;103557.13;5033268;28;20033;-72
2023/02/05 10:26:24;;;;;;;7.18;0.85;;;;;;;15.22;47.30;103563.56;5033274;28;20068;-72
2023/02/05 10:29:11;;;;;;;10.88;1.20;;;;;;;15.26;47.62;103554.31;5032592;28;20025;-71
2023/02/05 10:31:55;;;;;;;9.88;1.17;;;;;;;15.36;48.46;103553.66;5033484;28;20045;-71
2023/02/05 10:34:35;;;;;;;6.60;1.90;;;;;;;15.40;48.32;103557.94;5038803;28;20465;-71
2023/02/05 10:37:02;;;;;;;13.50;1.38;;;;;;;15.41;48.36;103565.06;5051812;28;20404;-72
2023/02/05 10:39:28;;;;;;;5.32;0.73;;;;;;;15.42;47.61;103564.09;5051867;28;20033;-71
2023/02/05 10:42:17;;;;;;;8.43;1.35;;;;;;;15.50;47.30;103548.31;5053324;28;20062;-72
2023/02/05 10:44:44;;;;;;;3.08;1.27;;;;;;;15.51;47.66;103539.25;5051924;28;20404;-71
2023/02/05 10:47:17;;;;;;;8.20;1.25;;;;;;;15.52;47.43;103532.03;5035131;28;20029;-71
2023/02/05 10:49:50;;;;;;;;;;;;;;;15.53;47.45;103542.72;5053713;28;20104;-71
2023/02/05 10:52:16;;;;;;;12.20;1.75;;;;;;;15.56;47.33;103550.66;5051885;28;19916;-70
2023/02/05 10:54:42;;;;;;;4.68;1.65;;;;;;;15.59;47.31;103550.47;5048022;28;20128;-71
2023/02/05 10:57:18;;;;;;;2.63;1.23;;;;;;;15.63;48.46;103548.44;5033142;28;20029;-70
2023/02/05 10:59:55;;;;;;;10.48;1.75;;;;;;;15.69;48.16;103540.81;5031924;28;20080;-72
2023/02/05 11:02:21;;;;;;;6.60;1.05;;;;;;;15.80;47.59;103545.53;5031781;28;20113;-72
2023/02/05 11:04:55;;;;;;;5.22;1.17;;;;;;;15.99;47.87;103553.38;5048707;28;20025;-71
2023/02/05 11:07:27;;;;;;;7.32;1.55;;;;;;;16.03;46.78;103552.19;5032845;28;20116;-73
2023/02/05 11:09:53;;;;;;;11.43;1.33;;;;;;;16.11;47.90;103533.63;5031611;28;20041;-70
2023/02/05 11:12:27;;;;;;;10.98;1.58;;;;;;;16.17;47.92;103527.84;5031480;28;20048;-71
2023/02/05 11:15:00;;;;;;;7.18;1.92;;;;;;;16.17;47.31;103533.25;5048352;28;20033;-71
2023/02/05 11:17:34;;;;;;;13.32;1.88;;;;;;;16.16;47.53;103535.06;5031890;28;20037;-72
2023/02/05 11:20:15;;;;;;;3.97;1.23;;;;;;;16.11;47.21;103544.44;5032984;28;20032;-71
2023/02/05 11:22:41;;;;;;;6.22;1.70;;;;;;;16.04;47.51;103553.94;5031990;28;20053;-71
2023/02/05 11:25:17;;;;;;;10.50;1.83;;;;;;;15.98;47.79;103562.44;5031624;28;20034;-71
2023/02/05 11:27:53;;;;;;;13.32;1.67;;;;;;;15.92;46.51;103560.13;5031524;28;20501;-71